Time,TemperatureF,DewpointF,PressureIn,WindDirection,WindDirectionDegrees,WindSpeedMPH,WindSpeedGustMPH,Humidity,HourlyPrecipIn,Conditions,Clouds,dailyrainin,SoftwareType,DateUTC
2013-06-09 00:05:00,71.6,71.0,29.97,SE,136,1.0,22.0,98,0.00,,,0.00,Wunderground v.1.15,2013-06-09 04:05:00,
2013-06-09 00:10:00,71.6,71.0,29.97,SE,131,0.0,0.0,98,0.00,,,0.00,Wunderground v.1.15,2013-06-09 04:10:00,
2013-06-09 00:20:00,71.6,71.0,29.97,ESE,123,0.0,0.0,98,0.00,,,0.00,Wunderground v.1.15,2013-06-09 04:20:00,
2013-06-09 00:25:00,71.6,71.0,29.97,SE,132,1.0,1.0,98,0.00,,,0.00,Wunderground v.1.15,2013-06-09 04:25:00,
2013-06-09 00:30:00,71.6,71.0,29.97,SE,132,1.0,1.0,98,0.00,,,0.00,Wunderground v.1.15,2013-06-09 04:30:00,
2013-06-09 00:35:00,71.6,71.0,29.97,SE,129,1.0,1.0,98,0.00,,,0.00,Wunderground v.1.15,2013-06-09 04:35:00,
2013-06-09 00:45:00,71.8,71.2,29.97,SE,124,0.0,1.0,98,0.00,,,0.00,Wunderground v.1.15,2013-06-09 04:45:00,
2013-06-09 00:50:00,72.0,71.4,29.97,SE,127,1.0,1.0,98,0.00,,,0.00,Wunderground v.1.15,2013-06-09 04:50:00,
2013-06-09 00:55:00,72.0,71.4,29.97,SE,126,1.0,3.0,98,0.00,,,0.00,Wunderground v.1.15,2013-06-09 04:55:00,
2013-06-09 01:00:00,72.0,71.1,29.97,ESE,115,2.0,2.0,97,0.00,,,0.00,Wunderground v.1.15,2013-06-09 05:00:00,
2013-06-09 01:10:00,72.1,71.2,29.97,ESE,122,1.0,1.0,97,0.00,,,0.00,Wunderground v.1.15,2013-06-09 05:10:00,
2013-06-09 01:15:00,72.1,71.2,29.97,SE,134,1.0,11.0,97,0.00,,,0.00,Wunderground v.1.15,2013-06-09 05:15:00,
2013-06-09 01:25:00,72.1,71.2,29.97,ESE,123,1.0,11.0,97,0.00,,,0.00,Wunderground v.1.15,2013-06-09 05:25:00,
2013-06-09 01:30:00,72.1,71.2,29.97,ESE,109,3.0,3.0,97,0.00,,,0.00,Wunderground v.1.15,2013-06-09 05:30:00,
2013-06-09 01:40:00,72.3,71.4,29.97,ESE,109,3.0,3.0,97,0.00,,,0.00,Wunderground v.1.15,2013-06-09 05:40:00,
2013-06-09 01:50:00,72.3,71.4,29.97,ESE,115,0.0,11.0,97,0.00,,,0.00,Wunderground v.1.15,2013-06-09 05:50:00,
2013-06-09 01:55:00,72.3,71.4,29.97,SE,129,0.0,11.0,97,0.00,,,0.00,Wunderground v.1.15,2013-06-09 05:55:00,
2013-06-09 02:05:00,72.5,71.6,29.96,SE,127,0.0,11.0,97,0.00,,,0.00,Wunderground v.1.15,2013-06-09 06:05:00,
2013-06-09 02:10:00,72.5,71.6,29.96,ESE,123,1.0,1.0,97,0.00,,,0.00,Wunderground v.1.15,2013-06-09 06:10:00,
2013-06-09 02:20:00,72.7,71.8,29.96,ESE,115,1.0,11.0,97,0.00,,,0.00,Wunderground v.1.15,2013-06-09 06:20:00,
2013-06-09 02:30:00,72.7,71.8,29.95,ESE,120,3.0,11.0,97,0.00,,,0.00,Wunderground v.1.15,2013-06-09 06:30:00,
2013-06-09 02:35:00,72.7,71.8,29.95,ESE,120,4.0,11.0,97,0.00,,,0.00,Wunderground v.1.15,2013-06-09 06:35:00,
2013-06-09 02:45:00,72.7,71.8,29.94,ESE,116,3.0,10.0,97,0.00,,,0.00,Wunderground v.1.15,2013-06-09 06:45:00,
2013-06-09 02:50:00,72.7,71.5,29.94,SE,129,3.0,3.0,96,0.00,,,0.00,Wunderground v.1.15,2013-06-09 06:50:00,
2013-06-09 03:00:00,72.7,71.5,29.94,SE,127,3.0,3.0,96,0.00,,,0.00,Wunderground v.1.15,2013-06-09 07:00:00,
2013-06-09 03:10:00,72.7,71.5,29.94,ESE,114,1.0,1.0,96,0.00,,,0.00,Wunderground v.1.15,2013-06-09 07:10:00,
2013-06-09 03:20:00,72.7,71.5,29.94,ESE,115,2.0,2.0,96,0.00,,,0.00,Wunderground v.1.15,2013-06-09 07:20:00,
2013-06-09 03:25:00,72.7,70.9,29.94,ESE,109,3.0,4.0,94,0.00,,,0.00,Wunderground v.1.15,2013-06-09 07:25:00,
2013-06-09 03:35:00,72.8,71.6,29.94,ESE,122,0.0,2.0,96,0.00,,,0.00,Wunderground v.1.15,2013-06-09 07:35:00,
2013-06-09 03:40:00,72.8,71.6,29.94,SE,125,1.0,5.0,96,0.00,,,0.00,Wunderground v.1.15,2013-06-09 07:40:00,
2013-06-09 03:50:00,72.8,71.6,29.94,ESE,105,1.0,4.0,96,0.00,,,0.00,Wunderground v.1.15,2013-06-09 07:50:00,
2013-06-09 04:00:00,73.0,71.8,29.94,ESE,103,2.0,4.0,96,0.00,,,0.00,Wunderground v.1.15,2013-06-09 08:00:00,
2013-06-09 04:05:00,73.0,71.8,29.94,East,94,2.0,13.0,96,0.00,,,0.00,Wunderground v.1.15,2013-06-09 08:05:00,
2013-06-09 04:15:00,73.2,72.0,29.94,ESE,102,1.0,13.0,96,0.00,,,0.00,Wunderground v.1.15,2013-06-09 08:15:00,
2013-06-09 04:20:00,73.2,72.0,29.94,East,87,1.0,13.0,96,0.00,,,0.00,Wunderground v.1.15,2013-06-09 08:20:00,
2013-06-09 04:30:00,73.2,72.0,29.95,ESE,110,2.0,2.0,96,0.00,,,0.00,Wunderground v.1.15,2013-06-09 08:30:00,
2013-06-09 04:40:00,73.3,72.1,29.95,East,101,1.0,1.0,96,0.00,,,0.00,Wunderground v.1.15,2013-06-09 08:40:00,
2013-06-09 04:45:00,73.2,72.0,29.95,ENE,77,1.0,13.0,96,0.00,,,0.00,Wunderground v.1.15,2013-06-09 08:45:00,
2013-06-09 04:55:00,73.2,72.0,29.95,East,91,0.0,13.0,96,0.00,,,0.00,Wunderground v.1.15,2013-06-09 08:55:00,
2013-06-09 05:05:00,73.0,72.1,29.95,ENE,58,0.0,13.0,97,0.00,,,0.00,Wunderground v.1.15,2013-06-09 09:05:00,
2013-06-09 05:10:00,73.0,72.1,29.95,ENE,70,0.0,13.0,97,0.00,,,0.00,Wunderground v.1.15,2013-06-09 09:10:00,
2013-06-09 05:20:00,72.8,71.9,29.96,East,91,0.0,13.0,97,0.00,,,0.00,Wunderground v.1.15,2013-06-09 09:20:00,
2013-06-09 05:25:00,72.8,71.9,29.96,ENE,62,0.0,13.0,97,0.00,,,0.00,Wunderground v.1.15,2013-06-09 09:25:00,
2013-06-09 05:35:00,72.8,71.9,29.96,East,82,0.0,13.0,97,0.00,,,0.00,Wunderground v.1.15,2013-06-09 09:35:00,
2013-06-09 05:45:00,72.8,71.9,29.97,East,80,0.0,13.0,97,0.00,,,0.00,Wunderground v.1.15,2013-06-09 09:45:00,
2013-06-09 05:55:00,73.0,72.1,29.97,ENE,78,0.0,13.0,97,0.00,,,0.00,Wunderground v.1.15,2013-06-09 09:55:00,
2013-06-09 06:00:00,73.0,72.1,29.97,East,98,0.0,13.0,97,0.00,,,0.00,Wunderground v.1.15,2013-06-09 10:00:00,
2013-06-09 06:10:00,73.2,72.3,29.97,ENE,70,0.0,0.0,97,0.00,,,0.00,Wunderground v.1.15,2013-06-09 10:10:00,
2013-06-09 06:20:00,73.2,72.6,29.97,East,89,0.0,0.0,98,0.00,,,0.00,Wunderground v.1.15,2013-06-09 10:20:00,
2013-06-09 06:25:00,73.3,72.7,29.97,East,89,0.0,0.0,98,0.00,,,0.00,Wunderground v.1.15,2013-06-09 10:25:00,
2013-06-09 06:35:00,73.3,72.7,29.97,SE,135,0.0,0.0,98,0.00,,,0.00,Wunderground v.1.15,2013-06-09 10:35:00,
2013-06-09 06:45:00,73.5,72.9,29.97,East,89,0.0,2.0,98,0.00,,,0.00,Wunderground v.1.15,2013-06-09 10:45:00,
2013-06-09 06:50:00,73.7,73.1,29.97,East,95,0.0,0.0,98,0.00,,,0.00,Wunderground v.1.15,2013-06-09 10:50:00,
2013-06-09 07:00:00,73.7,73.1,29.98,East,95,0.0,0.0,98,0.00,,,0.00,Wunderground v.1.15,2013-06-09 11:00:00,
2013-06-09 07:10:00,73.9,73.3,29.98,ESE,102,0.0,0.0,98,0.00,,,0.00,Wunderground v.1.15,2013-06-09 11:10:00,
2013-06-09 07:15:00,73.9,73.3,29.98,ESE,115,1.0,1.0,98,0.00,,,0.00,Wunderground v.1.15,2013-06-09 11:15:00,
2013-06-09 07:25:00,74.2,73.6,29.98,East,98,3.0,5.0,98,0.00,,,0.00,Wunderground v.1.15,2013-06-09 11:25:00,
2013-06-09 07:35:00,74.4,73.8,29.98,East,89,2.0,5.0,98,0.00,,,0.00,Wunderground v.1.15,2013-06-09 11:35:00,
2013-06-09 07:45:00,74.6,74.0,29.99,ESE,105,2.0,2.0,98,0.00,,,0.00,Wunderground v.1.15,2013-06-09 11:45:00,
2013-06-09 07:50:00,74.7,74.1,29.99,East,93,1.0,1.0,98,0.00,,,0.00,Wunderground v.1.15,2013-06-09 11:50:00,
2013-06-09 08:00:00,74.7,74.1,29.99,ESE,102,2.0,2.0,98,0.00,,,0.00,Wunderground v.1.15,2013-06-09 12:00:00,
2013-06-09 08:10:00,74.9,74.6,29.99,ESE,103,1.0,1.0,99,0.00,,,0.00,Wunderground v.1.15,2013-06-09 12:10:00,
2013-06-09 08:15:00,74.9,74.6,29.99,NE,56,1.0,6.0,99,0.00,,,0.00,Wunderground v.1.15,2013-06-09 12:15:00,
2013-06-09 08:25:00,75.1,74.8,29.99,ESE,116,0.0,1.0,99,0.00,,,0.00,Wunderground v.1.15,2013-06-09 12:25:00,
2013-06-09 08:35:00,75.3,75.0,29.99,ESE,105,2.0,2.0,99,0.00,,,0.00,Wunderground v.1.15,2013-06-09 12:35:00,
2013-06-09 08:45:00,75.3,75.0,29.99,NE,48,1.0,1.0,99,0.00,,,0.00,Wunderground v.1.15,2013-06-09 12:45:00,
2013-06-09 08:50:00,75.3,75.0,29.99,ESE,111,4.0,9.0,99,0.00,,,0.00,Wunderground v.1.15,2013-06-09 12:50:00,
2013-06-09 09:00:00,75.6,75.3,29.99,East,89,4.0,9.0,99,0.00,,,0.00,Wunderground v.1.15,2013-06-09 13:00:00,
2013-06-09 09:10:00,76.0,75.7,29.99,East,96,4.0,12.0,99,0.00,,,0.00,Wunderground v.1.15,2013-06-09 13:10:00,
2013-06-09 09:20:00,76.3,76.0,29.99,ESE,116,4.0,7.0,99,0.00,,,0.00,Wunderground v.1.15,2013-06-09 13:20:00,
2013-06-09 09:30:00,76.7,76.1,29.99,SE,138,5.0,6.0,98,0.00,,,0.00,Wunderground v.1.15,2013-06-09 13:30:00,
2013-06-09 09:40:00,77.2,76.6,29.99,ESE,105,4.0,15.0,98,0.00,,,0.00,Wunderground v.1.15,2013-06-09 13:40:00,
2013-06-09 09:50:00,77.7,76.8,29.98,ESE,111,6.0,16.0,97,0.00,,,0.00,Wunderground v.1.15,2013-06-09 13:50:00,
2013-06-09 09:55:00,77.7,76.5,29.98,ESE,118,8.0,16.0,96,0.00,,,0.00,Wunderground v.1.15,2013-06-09 13:55:00,
2013-06-09 10:05:00,78.8,76.6,29.99,East,98,6.0,11.0,93,0.00,,,0.00,Wunderground v.1.15,2013-06-09 14:05:00,
2013-06-09 10:10:00,79.2,76.3,29.99,ESE,122,7.0,7.0,91,0.00,,,0.00,Wunderground v.1.15,2013-06-09 14:10:00,
2013-06-09 10:15:00,79.6,76.1,29.99,SE,145,6.0,13.0,89,0.00,,,0.00,Wunderground v.1.15,2013-06-09 14:15:00,
2013-06-09 10:25:00,80.3,75.7,29.99,SE,131,7.0,14.0,86,0.00,,,0.00,Wunderground v.1.15,2013-06-09 14:25:00,
2013-06-09 10:35:00,81.2,75.2,29.98,ESE,104,6.0,13.0,82,0.00,,,0.00,Wunderground v.1.15,2013-06-09 14:35:00,
2013-06-09 10:45:00,81.2,74.4,29.98,ESE,115,10.0,13.0,80,0.00,,,0.00,Wunderground v.1.15,2013-06-09 14:45:00,
2013-06-09 10:55:00,82.0,74.5,29.98,South,173,8.0,15.0,78,0.00,,,0.00,Wunderground v.1.15,2013-06-09 14:55:00,
2013-06-09 11:00:00,82.2,74.7,29.98,ESE,109,9.0,13.0,78,0.00,,,0.00,Wunderground v.1.15,2013-06-09 15:00:00,
2013-06-09 11:10:00,82.4,74.1,29.98,SE,146,9.0,13.0,76,0.00,,,0.00,Wunderground v.1.15,2013-06-09 15:10:00,
2013-06-09 11:20:00,83.0,73.9,29.98,ESE,120,10.0,14.0,74,0.00,,,0.00,Wunderground v.1.15,2013-06-09 15:20:00,
2013-06-09 11:30:00,83.6,74.0,29.98,SE,134,8.0,13.0,73,0.00,,,0.00,Wunderground v.1.15,2013-06-09 15:30:00,
2013-06-09 11:40:00,83.6,73.6,29.98,ESE,109,8.0,8.0,72,0.00,,,0.00,Wunderground v.1.15,2013-06-09 15:40:00,
2013-06-09 11:45:00,83.8,74.6,29.98,ESE,103,8.0,18.0,74,0.00,,,0.00,Wunderground v.1.15,2013-06-09 15:45:00,
2013-06-09 11:55:00,84.3,73.0,29.98,SE,127,6.0,9.0,69,0.00,,,0.00,Wunderground v.1.15,2013-06-09 15:55:00,
2013-06-09 12:05:00,84.5,73.2,29.99,SSE,159,10.0,10.0,69,0.00,,,0.00,Wunderground v.1.15,2013-06-09 16:05:00,
2013-06-09 12:15:00,85.1,74.2,29.98,SSE,151,5.0,6.0,70,0.00,,,0.00,Wunderground v.1.15,2013-06-09 16:15:00,
2013-06-09 12:25:00,85.3,73.1,29.98,SSE,160,6.0,7.0,67,0.00,,,0.00,Wunderground v.1.15,2013-06-09 16:25:00,
2013-06-09 12:35:00,85.5,71.9,29.98,SSE,159,9.0,17.0,64,0.00,,,0.00,Wunderground v.1.15,2013-06-09 16:35:00,
2013-06-09 12:40:00,85.5,72.4,29.98,SSE,149,12.0,12.0,65,0.00,,,0.00,Wunderground v.1.15,2013-06-09 16:40:00,
2013-06-09 12:50:00,85.7,73.0,29.98,SE,140,8.0,8.0,66,0.00,,,0.00,Wunderground v.1.15,2013-06-09 16:50:00,
2013-06-09 13:00:00,86.3,73.1,29.99,ESE,105,6.0,13.0,65,0.00,,,0.00,Wunderground v.1.15,2013-06-09 17:00:00,
2013-06-09 13:10:00,86.3,73.1,29.99,East,92,8.0,23.0,65,0.00,,,0.00,Wunderground v.1.15,2013-06-09 17:10:00,
2013-06-09 13:20:00,86.5,72.9,29.98,SE,136,9.0,23.0,64,0.00,,,0.00,Wunderground v.1.15,2013-06-09 17:20:00,
2013-06-09 13:25:00,87.0,73.3,29.98,SE,136,6.0,23.0,64,0.00,,,0.00,Wunderground v.1.15,2013-06-09 17:25:00,
2013-06-09 13:35:00,87.6,73.4,29.98,ESE,103,6.0,23.0,63,0.00,,,0.00,Wunderground v.1.15,2013-06-09 17:35:00,
2013-06-09 13:45:00,87.0,72.4,29.97,East,84,9.0,23.0,62,0.00,,,0.00,Wunderground v.1.15,2013-06-09 17:45:00,
2013-06-09 13:50:00,87.0,72.4,29.97,SE,135,9.0,9.0,62,0.00,,,0.00,Wunderground v.1.15,2013-06-09 17:50:00,
2013-06-09 14:00:00,87.4,72.8,29.97,ESE,113,2.0,2.0,62,0.00,,,0.00,Wunderground v.1.15,2013-06-09 18:00:00,
2013-06-09 14:10:00,88.2,72.6,29.97,ENE,58,4.0,23.0,60,0.00,,,0.00,Wunderground v.1.15,2013-06-09 18:10:00,
2013-06-09 14:15:00,88.2,72.1,29.96,SE,131,7.0,23.0,59,0.00,,,0.00,Wunderground v.1.15,2013-06-09 18:15:00,
2013-06-09 14:25:00,87.8,72.2,29.96,East,96,5.0,23.0,60,0.00,,,0.00,Wunderground v.1.15,2013-06-09 18:25:00,
2013-06-09 14:35:00,87.4,74.2,29.95,West,271,5.0,23.0,65,0.00,,,0.00,Wunderground v.1.15,2013-06-09 18:35:00,
2013-06-09 14:40:00,85.7,73.0,29.95,WSW,249,7.0,23.0,66,0.00,,,0.00,Wunderground v.1.15,2013-06-09 18:40:00,
2013-06-09 14:50:00,84.3,74.7,29.96,SSW,210,10.0,10.0,73,0.00,,,0.00,Wunderground v.1.15,2013-06-09 18:50:00,
2013-06-09 15:00:00,84.1,74.5,29.96,West,261,7.0,23.0,73,0.00,,,0.00,Wunderground v.1.15,2013-06-09 19:00:00,
2013-06-09 15:05:00,83.8,74.6,29.96,West,278,11.0,23.0,74,0.00,,,0.00,Wunderground v.1.15,2013-06-09 19:05:00,
2013-06-09 15:15:00,84.0,74.8,29.95,WNW,282,14.0,21.0,74,0.00,,,0.00,Wunderground v.1.15,2013-06-09 19:15:00,
2013-06-09 15:25:00,84.9,75.3,29.95,WSW,256,15.0,15.0,73,0.00,,,0.00,Wunderground v.1.15,2013-06-09 19:25:00,
2013-06-09 15:35:00,84.3,75.1,29.93,West,262,14.0,21.0,74,0.00,,,0.00,Wunderground v.1.15,2013-06-09 19:35:00,
2013-06-09 15:40:00,84.3,75.9,29.93,NW,308,16.0,16.0,76,0.00,,,0.00,Wunderground v.1.15,2013-06-09 19:40:00,
2013-06-09 15:50:00,84.5,75.3,29.92,West,261,14.0,15.0,74,0.00,,,0.00,Wunderground v.1.15,2013-06-09 19:50:00,
2013-06-09 16:00:00,85.1,75.1,29.93,West,269,13.0,21.0,72,0.00,,,0.00,Wunderground v.1.15,2013-06-09 20:00:00,
2013-06-09 16:05:00,85.1,74.6,29.93,West,267,13.0,21.0,71,0.00,,,0.00,Wunderground v.1.15,2013-06-09 20:05:00,
2013-06-09 16:15:00,84.9,74.0,29.96,ENE,63,9.0,25.0,70,0.00,,,0.00,Wunderground v.1.15,2013-06-09 20:15:00,
2013-06-09 16:25:00,79.4,73.1,29.96,East,86,12.0,12.0,81,0.25,,,0.02,Wunderground v.1.15,2013-06-09 20:25:00,
2013-06-09 16:30:00,77.2,72.3,29.96,North,4,10.0,21.0,85,0.87,,,0.06,Wunderground v.1.15,2013-06-09 20:30:00,
2013-06-09 16:40:00,75.1,72.0,29.96,ENE,60,11.0,11.0,90,0.61,,,0.20,Wunderground v.1.15,2013-06-09 20:40:00,
2013-06-09 16:45:00,74.6,71.8,29.95,ENE,77,7.0,21.0,91,0.21,,,0.21,Wunderground v.1.15,2013-06-09 20:45:00,
2013-06-09 16:55:00,74.9,73.1,29.95,SE,132,3.0,21.0,94,0.05,,,0.21,Wunderground v.1.15,2013-06-09 20:55:00,
2013-06-09 17:05:00,75.4,73.6,29.94,ESE,105,3.0,21.0,94,0.00,,,0.22,Wunderground v.1.15,2013-06-09 21:05:00,
2013-06-09 17:10:00,76.0,74.1,29.94,SE,142,2.0,2.0,94,0.00,,,0.22,Wunderground v.1.15,2013-06-09 21:10:00,
2013-06-09 17:20:00,77.0,75.5,29.92,ESE,105,0.0,21.0,95,0.00,,,0.22,Wunderground v.1.15,2013-06-09 21:20:00,
2013-06-09 17:25:00,77.7,75.8,29.92,SW,217,0.0,21.0,94,0.00,,,0.22,Wunderground v.1.15,2013-06-09 21:25:00,
2013-06-09 17:35:00,78.5,75.3,29.92,SSW,200,0.0,21.0,90,0.00,,,0.22,Wunderground v.1.15,2013-06-09 21:35:00,
2013-06-09 17:45:00,79.9,75.3,29.91,WSW,249,0.0,21.0,86,0.00,,,0.22,Wunderground v.1.15,2013-06-09 21:45:00,
2013-06-09 17:50:00,80.5,75.6,29.91,WNW,299,2.0,21.0,85,0.00,,,0.22,Wunderground v.1.15,2013-06-09 21:50:00,
2013-06-09 18:00:00,79.9,75.0,29.91,NW,306,6.0,6.0,85,0.00,,,0.22,Wunderground v.1.15,2013-06-09 22:00:00,
2013-06-09 18:10:00,80.7,75.4,29.91,NW,306,0.0,0.0,84,0.00,,,0.22,Wunderground v.1.15,2013-06-09 22:10:00,
2013-06-09 18:20:00,81.4,75.4,29.91,West,276,3.0,9.0,82,0.00,,,0.22,Wunderground v.1.15,2013-06-09 22:20:00,
2013-06-09 18:25:00,81.4,74.6,29.91,West,276,4.0,9.0,80,0.00,,,0.22,Wunderground v.1.15,2013-06-09 22:25:00,
2013-06-09 18:35:00,82.6,74.7,29.91,West,275,1.0,2.0,77,0.00,,,0.22,Wunderground v.1.15,2013-06-09 22:35:00,
2013-06-09 18:40:00,82.6,73.1,29.91,West,281,1.0,8.0,73,0.00,,,0.22,Wunderground v.1.15,2013-06-09 22:40:00,
2013-06-09 18:50:00,83.2,73.6,29.91,West,281,3.0,6.0,73,0.00,,,0.22,Wunderground v.1.15,2013-06-09 22:50:00,
2013-06-09 19:00:00,83.2,72.0,29.91,WNW,286,1.0,1.0,69,0.00,,,0.22,Wunderground v.1.15,2013-06-09 23:00:00,
2013-06-09 19:05:00,83.2,72.0,29.91,WNW,287,0.0,16.0,69,0.00,,,0.22,Wunderground v.1.15,2013-06-09 23:05:00,
2013-06-09 19:15:00,83.2,72.0,29.92,WNW,287,0.0,16.0,69,0.00,,,0.22,Wunderground v.1.15,2013-06-09 23:15:00,
2013-06-09 19:20:00,83.2,72.0,29.92,WNW,287,0.0,16.0,69,0.00,,,0.22,Wunderground v.1.15,2013-06-09 23:20:00,
2013-06-09 19:30:00,83.4,73.0,29.93,WNW,287,0.0,16.0,71,0.00,,,0.22,Wunderground v.1.15,2013-06-09 23:30:00,
2013-06-09 19:40:00,83.0,73.4,29.93,WNW,297,0.0,16.0,73,0.00,,,0.22,Wunderground v.1.15,2013-06-09 23:40:00,
2013-06-09 19:45:00,82.8,73.3,29.94,NW,305,0.0,16.0,73,0.00,,,0.22,Wunderground v.1.15,2013-06-09 23:45:00,
2013-06-09 19:55:00,82.8,72.8,29.94,NW,305,0.0,16.0,72,0.00,,,0.22,Wunderground v.1.15,2013-06-09 23:55:00,
2013-06-09 20:00:00,83.0,73.4,29.94,NW,305,0.0,16.0,73,0.00,,,0.22,Wunderground v.1.15,2013-06-10 00:00:00,
2013-06-09 20:10:00,82.8,74.1,29.94,NW,305,0.0,16.0,75,0.00,,,0.22,Wunderground v.1.15,2013-06-10 00:10:00,
2013-06-09 20:20:00,82.4,74.8,29.95,NW,305,0.0,16.0,78,0.00,,,0.22,Wunderground v.1.15,2013-06-10 00:20:00,
2013-06-09 20:25:00,82.4,75.2,29.95,NW,305,0.0,16.0,79,0.00,,,0.22,Wunderground v.1.15,2013-06-10 00:25:00,
2013-06-09 20:35:00,81.6,73.7,29.95,NW,305,0.0,16.0,77,0.00,,,0.22,Wunderground v.1.15,2013-06-10 00:35:00,
2013-06-09 20:40:00,81.1,72.8,29.95,NW,307,0.0,16.0,76,0.00,,,0.22,Wunderground v.1.15,2013-06-10 00:40:00,
2013-06-09 20:50:00,80.9,73.0,29.95,NW,311,0.0,16.0,77,0.00,,,0.22,Wunderground v.1.15,2013-06-10 00:50:00,
2013-06-09 21:00:00,80.7,73.6,29.96,NNW,329,0.0,16.0,79,0.00,,,0.22,Wunderground v.1.15,2013-06-10 01:00:00,
2013-06-09 21:05:00,80.5,73.4,29.96,NNW,335,0.0,16.0,79,0.00,,,0.22,Wunderground v.1.15,2013-06-10 01:05:00,
2013-06-09 21:15:00,80.1,73.4,29.96,NNW,335,0.0,0.0,80,0.00,,,0.22,Wunderground v.1.15,2013-06-10 01:15:00,
2013-06-09 21:20:00,79.9,73.2,29.96,NNW,337,0.0,0.0,80,0.00,,,0.22,Wunderground v.1.15,2013-06-10 01:20:00,
2013-06-09 21:30:00,79.8,73.8,29.96,North,359,0.0,0.0,82,0.00,,,0.22,Wunderground v.1.15,2013-06-10 01:30:00,
2013-06-09 21:40:00,79.6,74.7,29.96,NE,40,0.0,0.0,85,0.00,,,0.22,Wunderground v.1.15,2013-06-10 01:40:00,
2013-06-09 21:45:00,79.8,75.6,29.97,NE,37,0.0,0.0,87,0.00,,,0.22,Wunderground v.1.15,2013-06-10 01:45:00,
2013-06-09 21:55:00,79.6,76.1,29.97,NE,56,0.0,0.0,89,0.00,,,0.22,Wunderground v.1.15,2013-06-10 01:55:00,
2013-06-09 22:00:00,79.4,75.9,29.97,NE,47,0.0,0.0,89,0.00,,,0.22,Wunderground v.1.15,2013-06-10 02:00:00,
2013-06-09 22:10:00,78.8,75.6,29.97,NNE,17,1.0,1.0,90,0.00,,,0.22,Wunderground v.1.15,2013-06-10 02:10:00,
2013-06-09 22:20:00,78.8,75.9,29.97,NNE,17,0.0,3.0,91,0.00,,,0.22,Wunderground v.1.15,2013-06-10 02:20:00,
2013-06-09 22:25:00,78.8,76.3,29.97,ENE,72,1.0,5.0,92,0.00,,,0.22,Wunderground v.1.15,2013-06-10 02:25:00,
2013-06-09 22:35:00,78.1,75.6,29.98,NE,38,1.0,3.0,92,0.00,,,0.22,Wunderground v.1.15,2013-06-10 02:35:00,
2013-06-09 22:40:00,77.9,75.4,29.98,NE,38,0.0,3.0,92,0.00,,,0.22,Wunderground v.1.15,2013-06-10 02:40:00,
2013-06-09 22:50:00,77.2,74.7,29.98,North,358,0.0,3.0,92,0.00,,,0.22,Wunderground v.1.15,2013-06-10 02:50:00,
2013-06-09 23:00:00,77.4,74.9,29.97,North,356,0.0,3.0,92,0.00,,,0.22,Wunderground v.1.15,2013-06-10 03:00:00,
2013-06-09 23:05:00,77.4,74.9,29.97,North,356,0.0,3.0,92,0.00,,,0.22,Wunderground v.1.15,2013-06-10 03:05:00,
2013-06-09 23:15:00,77.4,74.9,29.97,North,1,0.0,3.0,92,0.00,,,0.22,Wunderground v.1.15,2013-06-10 03:15:00,
2013-06-09 23:20:00,77.2,74.7,29.97,NNE,12,0.0,3.0,92,0.00,,,0.22,Wunderground v.1.15,2013-06-10 03:20:00,
2013-06-09 23:30:00,77.0,74.5,29.98,ENE,61,0.0,3.0,92,0.00,,,0.22,Wunderground v.1.15,2013-06-10 03:30:00,
2013-06-09 23:40:00,76.8,74.3,29.98,ENE,61,0.0,3.0,92,0.00,,,0.22,Wunderground v.1.15,2013-06-10 03:40:00,
2013-06-09 23:50:00,76.7,74.2,29.98,ENE,61,0.0,3.0,92,0.00,,,0.22,Wunderground v.1.15,2013-06-10 03:50:00,
2013-06-09 23:55:00,76.7,74.5,29.98,ENE,61,0.0,3.0,93,0.00,,,0.22,Wunderground v.1.15,2013-06-10 03:55:00,